createdAt,value
2019-01-13T00:00:45.452Z,101035.62
2019-01-13T00:03:18.132Z,101035.22
2019-01-13T00:05:48.475Z,101032.64
2019-01-13T00:08:18.788Z,101027.42
2019-01-13T00:10:49.067Z,101015.67
2019-01-13T00:13:19.291Z,101019.18
2019-01-13T00:15:49.614Z,101013.52
2019-01-13T00:18:19.842Z,101018.34
2019-01-13T00:20:50.030Z,101013.05
2019-01-13T00:23:20.237Z,101019.61
2019-01-13T00:25:50.367Z,101019.98
2019-01-13T00:28:20.515Z,101024.78
2019-01-13T00:30:50.632Z,101027.82
2019-01-13T00:33:20.794Z,101023.91
2019-01-13T00:35:50.991Z,101007.77
2019-01-13T00:38:21.136Z,101013.37
2019-01-13T00:40:51.304Z,101015.05
2019-01-13T00:43:21.476Z,101012.43
2019-01-13T00:45:51.683Z,100997.27
2019-01-13T00:48:21.915Z,100996.86
2019-01-13T00:50:52.136Z,100995.12
2019-01-13T00:53:22.305Z,100991.20
2019-01-13T00:55:52.578Z,100980.80
2019-01-13T00:58:22.782Z,100988.63
2019-01-13T01:00:53.070Z,100976.47
2019-01-13T01:03:23.286Z,100978.64
2019-01-13T01:05:54.920Z,100976.47
2019-01-13T01:08:25.332Z,100969.91
2019-01-13T01:10:55.669Z,100964.25
2019-01-13T01:13:25.847Z,100961.64
2019-01-13T01:15:55.987Z,100959.53
2019-01-13T01:18:26.201Z,100952.56
2019-01-13T01:20:56.412Z,100940.81
2019-01-13T01:23:26.600Z,100935.62
2019-01-13T01:25:56.843Z,100920.84
2019-01-13T01:28:26.974Z,100926.10
2019-01-13T01:30:57.101Z,100924.36
2019-01-13T01:33:27.306Z,100916.55
2019-01-13T01:35:57.638Z,100916.55
2019-01-13T01:38:27.830Z,100909.99
2019-01-13T01:40:58.030Z,100907.30
2019-01-13T01:43:28.075Z,100889.81
2019-01-13T01:45:58.280Z,100885.81
2019-01-13T01:48:28.541Z,100896.20
2019-01-13T01:50:58.676Z,100889.59
2019-01-13T01:53:28.879Z,100893.47
2019-01-13T01:55:59.101Z,100909.97
2019-01-13T01:58:29.303Z,100902.55
2019-01-13T02:00:59.596Z,100902.92
2019-01-13T02:03:29.801Z,100918.52
2019-01-13T02:05:59.955Z,100928.06
2019-01-13T02:08:30.130Z,100921.97
2019-01-13T02:11:00.460Z,100923.77
2019-01-13T02:13:38.480Z,100914.70
2019-01-13T02:16:08.669Z,100913.42
2019-01-13T02:18:38.822Z,100919.58
2019-01-13T02:21:09.093Z,100913.55
2019-01-13T02:23:39.299Z,100908.85
2019-01-13T02:26:09.559Z,100898.87
2019-01-13T02:28:39.700Z,100900.17
2019-01-13T02:31:11.607Z,100894.52
2019-01-13T02:33:41.807Z,100886.25
2019-01-13T02:36:11.997Z,100886.69
2019-01-13T02:38:43.394Z,100879.29
2019-01-13T02:41:13.575Z,100878.42
2019-01-13T02:43:43.605Z,100879.75
2019-01-13T02:46:13.733Z,100880.22
2019-01-13T02:48:43.931Z,100870.70
2019-01-13T02:51:14.152Z,100868.55
2019-01-13T02:53:44.422Z,100862.06
2019-01-13T02:56:14.616Z,100856.90
2019-01-13T02:58:44.767Z,100858.20
2019-01-13T03:01:14.972Z,100845.63
2019-01-13T03:03:45.164Z,100835.64
2019-01-13T03:06:15.424Z,100835.66
2019-01-13T03:08:45.641Z,100829.16
2019-01-13T03:11:15.934Z,100829.62
2019-01-13T03:13:46.196Z,100830.94
2019-01-13T03:16:16.337Z,100833.58
2019-01-13T03:18:46.513Z,100834.03
2019-01-13T03:21:16.733Z,100837.54
2019-01-13T03:23:46.935Z,100838.00
2019-01-13T03:26:17.144Z,100828.44
2019-01-13T03:28:47.261Z,100824.52
2019-01-13T03:31:17.452Z,100817.14
2019-01-13T03:33:47.589Z,100809.75
2019-01-13T03:36:17.804Z,100801.94
2019-01-13T03:38:47.949Z,100788.46
2019-01-13T03:41:18.076Z,100794.14
2019-01-13T03:43:48.179Z,100780.63
2019-01-13T03:46:18.301Z,100779.37
2019-01-13T03:48:48.508Z,100768.48
2019-01-13T03:51:18.969Z,100771.08
2019-01-13T03:53:49.134Z,100762.37
2019-01-13T03:56:19.190Z,100757.16
2019-01-13T03:58:49.363Z,100754.67
2019-01-13T04:01:19.831Z,100743.28
2019-01-13T04:03:50.032Z,100743.67
2019-01-13T04:06:20.268Z,100741.44
2019-01-13T04:08:50.381Z,100733.98
2019-01-13T04:11:20.649Z,100716.97
2019-01-13T04:13:50.863Z,100709.56
2019-01-13T04:16:21.319Z,100700.84
2019-01-13T04:18:51.554Z,100694.28
2019-01-13T04:21:21.738Z,100696.42
2019-01-13T04:23:51.905Z,100689.91
2019-01-13T04:26:22.138Z,100682.47
2019-01-13T04:28:52.266Z,100685.08
2019-01-13T04:31:26.601Z,100676.41
2019-01-13T04:33:54.186Z,100670.72
2019-01-13T04:36:24.386Z,100667.69
2019-01-13T04:38:54.578Z,100661.16
2019-01-13T04:41:24.828Z,100659.88
2019-01-13T04:43:54.933Z,100648.98
2019-01-13T04:46:25.137Z,100639.41
2019-01-13T04:48:55.183Z,100641.16
2019-01-13T04:51:25.296Z,100639.88
2019-01-13T04:53:55.417Z,100626.38
2019-01-13T04:56:25.636Z,100622.49
2019-01-13T04:58:55.922Z,100625.52
2019-01-13T05:01:26.119Z,100610.28
2019-01-13T05:03:56.271Z,100608.12
2019-01-13T05:06:26.508Z,100599.87
2019-01-13T05:08:56.553Z,100589.00
2019-01-13T05:11:26.607Z,100582.89
2019-01-13T05:13:56.716Z,100581.16
2019-01-13T05:16:26.903Z,100573.77
2019-01-13T05:18:57.040Z,100567.22
2019-01-13T05:21:27.136Z,100566.37
2019-01-13T05:23:57.287Z,100560.27
2019-01-13T05:26:27.514Z,100548.97
2019-01-13T05:28:57.783Z,100544.61
2019-01-13T05:31:27.882Z,100544.18
2019-01-13T05:33:58.125Z,100548.13
2019-01-13T05:36:28.222Z,100546.38
2019-01-13T05:38:58.350Z,100542.89
2019-01-13T05:41:28.514Z,100527.22
2019-01-13T05:43:58.639Z,100526.77
2019-01-13T05:46:28.827Z,100534.63
2019-01-13T05:48:58.966Z,100524.17
2019-01-13T05:51:29.167Z,100517.20
2019-01-13T05:53:59.282Z,100517.22
2019-01-13T05:56:29.482Z,100511.97
2019-01-13T05:58:59.577Z,100495.43
2019-01-13T06:01:29.871Z,100502.42
2019-01-13T06:03:59.988Z,100490.22
2019-01-13T06:06:30.109Z,100491.55
2019-01-13T06:09:00.315Z,100489.80
2019-01-13T06:11:30.492Z,100485.45
2019-01-13T06:14:00.718Z,100479.33
2019-01-13T06:16:30.939Z,100481.96
2019-01-13T06:19:01.126Z,100472.39
2019-01-13T06:21:31.279Z,100464.54
2019-01-13T06:24:01.480Z,100459.75
2019-01-13T06:26:31.638Z,100455.86
2019-01-13T06:29:01.769Z,100441.45
2019-01-13T06:31:32.101Z,100444.09
2019-01-13T06:34:02.250Z,100437.10
2019-01-13T06:36:32.427Z,100437.55
2019-01-13T06:39:02.703Z,100428.84
2019-01-13T06:41:32.950Z,100438.88
2019-01-13T06:44:03.169Z,100429.72
2019-01-13T06:46:35.477Z,100433.19
2019-01-13T06:49:06.764Z,100432.31
2019-01-13T06:51:37.028Z,100433.22
2019-01-13T06:54:07.239Z,100434.50
2019-01-13T06:56:57.843Z,100427.97
2019-01-13T06:59:28.087Z,100423.61
2019-01-13T07:02:03.379Z,100414.02
2019-01-13T07:04:30.403Z,100414.91
2019-01-13T07:07:00.573Z,100417.08
2019-01-13T07:09:30.906Z,100416.64
2019-01-13T07:12:01.119Z,100406.16
2019-01-13T07:14:31.275Z,100412.27
2019-01-13T07:17:01.457Z,100411.42
2019-01-13T07:19:31.591Z,100403.99
2019-01-13T07:22:01.773Z,100407.91
2019-01-13T07:24:31.883Z,100393.98
2019-01-13T07:27:02.083Z,100404.87
2019-01-13T07:29:32.362Z,100390.48
2019-01-13T07:32:02.489Z,100383.95
2019-01-13T07:34:32.699Z,100406.19
2019-01-13T07:37:02.830Z,100392.22
2019-01-13T07:39:32.969Z,100386.56
2019-01-13T07:42:03.108Z,100391.80
2019-01-13T07:44:33.326Z,100385.25
2019-01-13T07:47:03.548Z,100394.84
2019-01-13T07:49:33.725Z,100384.39
2019-01-13T07:52:03.968Z,100380.03
2019-01-13T07:54:34.131Z,100371.30
2019-01-13T07:57:04.467Z,100367.83
2019-01-13T07:59:34.696Z,100366.50
2019-01-13T08:02:04.915Z,100360.85
2019-01-13T08:04:35.119Z,100367.39
2019-01-13T08:07:05.404Z,100366.05
2019-01-13T08:09:41.954Z,100359.11
2019-01-13T08:12:12.243Z,100358.22
2019-01-13T08:14:45.156Z,100352.98
2019-01-13T08:17:15.395Z,100351.69
2019-01-13T08:19:45.631Z,100359.95
2019-01-13T08:22:15.898Z,100356.47
2019-01-13T08:24:46.237Z,100350.38
2019-01-13T08:27:16.550Z,100347.73
2019-01-13T08:29:46.807Z,100347.30
2019-01-13T08:32:16.951Z,100340.31
2019-01-13T08:34:49.602Z,100345.14
2019-01-13T08:37:19.853Z,100331.63
2019-01-13T08:39:51.456Z,100329.44
2019-01-13T08:42:21.790Z,100331.61
2019-01-13T08:44:53.638Z,100337.29
2019-01-13T08:47:23.883Z,100349.06
2019-01-13T08:49:53.982Z,100332.49
2019-01-13T08:52:24.215Z,100330.31
2019-01-13T08:54:54.443Z,100329.87
2019-01-13T08:57:24.680Z,100340.78
2019-01-13T08:59:57.890Z,100335.55
2019-01-13T09:02:32.226Z,100323.33
2019-01-13T09:04:59.929Z,100319.39
2019-01-13T09:07:30.170Z,100321.58
2019-01-13T09:10:02.154Z,100326.37
2019-01-13T09:12:32.469Z,100325.06
2019-01-13T09:15:02.643Z,100318.08
2019-01-13T09:17:32.867Z,100316.33
2019-01-13T09:20:03.171Z,100316.33
2019-01-13T09:22:33.407Z,100311.09
2019-01-13T09:25:03.767Z,100304.13
2019-01-13T09:27:34.884Z,100298.48
2019-01-13T09:30:09.399Z,100306.75
2019-01-13T09:32:39.840Z,100301.52
2019-01-13T09:35:10.043Z,100296.70
2019-01-13T09:37:40.318Z,100299.77
2019-01-13T09:40:12.718Z,100311.55
2019-01-13T09:42:43.037Z,100307.62
2019-01-13T09:45:13.414Z,100311.55
2019-01-13T09:47:43.658Z,100301.50
2019-01-13T09:50:16.536Z,100300.63
2019-01-13T09:52:46.749Z,100289.31
2019-01-13T09:55:18.739Z,100282.33
2019-01-13T09:57:49.039Z,100288.42
2019-01-13T10:00:34.300Z,100278.38
2019-01-13T10:03:05.276Z,100272.28
2019-01-13T10:05:35.495Z,100264.85
2019-01-13T10:08:07.578Z,100269.22
2019-01-13T10:10:38.078Z,100272.70
2019-01-13T10:13:09.940Z,100273.98
2019-01-13T10:15:40.182Z,100262.66
2019-01-13T10:18:10.508Z,100257.42
2019-01-13T10:20:40.850Z,100245.23
2019-01-13T10:23:11.031Z,100234.77
2019-01-13T10:25:41.274Z,100241.75
2019-01-13T10:28:11.414Z,100239.57
2019-01-13T10:31:03.147Z,100248.28
2019-01-13T10:33:51.167Z,100242.10
2019-01-13T10:36:21.389Z,100238.23
2019-01-13T10:38:51.552Z,100227.76
2019-01-13T10:41:21.771Z,100233.44
2019-01-13T10:43:54.101Z,100225.17
2019-01-13T10:46:27.583Z,100205.09
2019-01-13T10:49:01.599Z,100215.56
2019-01-13T10:51:34.824Z,100189.40
2019-01-13T10:54:09.576Z,100180.23
2019-01-13T10:56:39.933Z,100187.64
2019-01-13T10:59:18.808Z,100183.30
2019-01-13T11:01:53.807Z,100176.77
2019-01-13T11:04:32.927Z,100175.87
2019-01-13T11:07:10.426Z,100177.17
2019-01-13T11:09:40.529Z,100162.37
2019-01-13T11:12:30.060Z,100147.11
2019-01-13T11:15:00.316Z,100148.84
2019-01-13T11:17:37.565Z,100150.14
2019-01-13T11:20:12.652Z,100145.39
2019-01-13T11:22:51.967Z,100141.46
2019-01-13T11:25:38.176Z,100141.02
2019-01-13T11:28:12.756Z,100138.85
2019-01-13T11:30:52.995Z,100132.73
2019-01-13T11:33:42.694Z,100145.78
2019-01-13T11:36:23.982Z,100134.48
2019-01-13T11:38:54.109Z,100096.98
2019-01-13T11:41:24.392Z,100110.07
2019-01-13T11:43:54.618Z,100106.56
2019-01-13T11:46:24.887Z,100118.33
2019-01-13T11:48:54.976Z,100106.59
2019-01-13T11:51:25.200Z,100084.35
2019-01-13T11:53:55.407Z,100087.41
2019-01-13T11:56:25.728Z,100079.53
2019-01-13T11:58:55.935Z,100086.08
2019-01-13T12:01:26.239Z,100080.43
2019-01-13T12:03:56.540Z,100075.61
2019-01-13T12:06:26.975Z,100070.41
2019-01-13T12:08:57.189Z,100058.61
2019-01-13T12:11:29.972Z,100054.23
2019-01-13T12:14:00.145Z,100056.44
2019-01-13T12:16:30.289Z,100036.40
2019-01-13T12:19:00.813Z,100030.31
2019-01-13T12:21:31.033Z,100035.55
2019-01-13T12:24:01.227Z,100023.73
2019-01-13T12:26:31.512Z,100024.22
2019-01-13T12:29:01.692Z,100007.22
2019-01-13T12:31:32.366Z,100007.66
2019-01-13T12:34:02.481Z,100008.97
2019-01-13T12:36:32.630Z,100006.80
2019-01-13T12:39:03.953Z,99991.55
2019-01-13T12:41:34.106Z,99987.15
2019-01-13T12:44:04.412Z,99987.59
2019-01-13T12:46:34.696Z,99978.03
2019-01-13T12:49:04.982Z,99964.95
2019-01-13T12:51:35.248Z,99971.48
2019-01-13T12:54:06.717Z,99967.56
2019-01-13T12:56:36.936Z,99970.59
2019-01-13T12:59:07.205Z,99980.64
2019-01-13T13:01:37.324Z,99963.20
2019-01-13T13:04:07.592Z,99962.34
2019-01-13T13:06:38.246Z,99951.02
2019-01-13T13:09:10.019Z,99939.66
2019-01-13T13:11:40.336Z,99928.33
2019-01-13T13:14:10.394Z,99955.39
2019-01-13T13:16:40.605Z,99954.94
2019-01-13T13:19:10.921Z,99927.92
2019-01-13T13:21:41.110Z,99922.24
2019-01-13T13:24:11.299Z,99946.68
2019-01-13T13:26:43.016Z,99948.40
2019-01-13T13:29:13.208Z,99921.38
2019-01-13T13:31:43.306Z,99923.55
2019-01-13T13:34:13.443Z,99890.86
2019-01-13T13:36:43.646Z,99925.30
2019-01-13T13:39:13.835Z,99910.92
2019-01-13T13:41:43.960Z,99896.95
2019-01-13T13:44:14.142Z,99910.02
2019-01-13T13:46:44.334Z,99898.20
2019-01-13T13:49:14.554Z,99895.54
2019-01-13T13:51:44.814Z,99898.92
2019-01-13T13:54:15.011Z,99885.33
2019-01-13T13:56:45.158Z,99892.63
2019-01-13T13:59:15.849Z,99882.95
2019-01-13T14:01:46.139Z,99868.98
2019-01-13T14:04:16.257Z,99879.41
2019-01-13T14:06:52.690Z,99854.53
2019-01-13T14:09:30.202Z,99894.20
2019-01-13T14:12:00.205Z,99850.55
2019-01-13T14:14:30.289Z,99842.23
2019-01-13T14:17:00.486Z,99839.56
2019-01-13T14:19:30.720Z,99840.41
2019-01-13T14:22:00.931Z,99848.27
2019-01-13T14:24:31.116Z,99842.56
2019-01-13T14:27:01.321Z,99849.56
2019-01-13T14:29:31.517Z,99845.14
2019-01-13T14:32:01.748Z,99845.98
2019-01-13T14:34:31.844Z,99834.20
2019-01-13T14:37:02.041Z,99842.05
2019-01-13T14:39:32.255Z,99830.92
2019-01-13T14:42:02.399Z,99810.75
2019-01-13T14:44:32.517Z,99813.37
2019-01-13T14:47:04.052Z,99844.88
2019-01-13T14:49:34.102Z,99851.43
2019-01-13T14:52:04.383Z,99831.39
2019-01-13T14:54:34.520Z,99838.84
2019-01-13T14:57:04.780Z,99837.14
2019-01-13T14:59:34.893Z,99837.59
2019-01-13T15:02:05.067Z,99842.42
2019-01-13T15:04:35.100Z,99842.92
2019-01-13T15:07:05.363Z,99810.73
2019-01-13T15:09:35.421Z,99830.80
2019-01-13T15:12:06.857Z,99813.39
2019-01-13T15:14:41.202Z,99854.34
2019-01-13T15:17:08.833Z,99862.18
2019-01-13T15:19:39.021Z,99850.95
2019-01-13T15:22:09.251Z,99883.90
2019-01-13T15:24:39.463Z,99860.11
2019-01-13T15:27:09.671Z,99891.55
2019-01-13T15:29:39.779Z,99857.67
2019-01-13T15:32:09.991Z,99896.05
2019-01-13T15:34:41.951Z,99860.02
2019-01-13T15:37:12.122Z,99860.45
2019-01-13T15:39:42.198Z,99868.34
2019-01-13T15:42:12.396Z,99858.80
2019-01-13T15:44:42.656Z,99867.94
2019-01-13T15:47:12.832Z,99871.87
2019-01-13T15:49:43.036Z,99863.15
2019-01-13T15:52:13.280Z,99850.08
2019-01-13T15:54:43.480Z,99853.52
2019-01-13T15:57:13.716Z,99860.47
2019-01-13T15:59:46.686Z,99867.02
2019-01-13T16:02:16.918Z,99868.73
2019-01-13T16:04:47.131Z,99866.15
2019-01-13T16:10:22.010Z,99848.30
2019-01-13T16:14:27.908Z,99855.25
2019-01-13T16:16:58.029Z,99860.44
2019-01-13T16:19:28.369Z,99865.67
2019-01-13T16:21:58.509Z,99844.75
2019-01-13T16:24:28.658Z,99858.17
2019-01-13T16:26:58.981Z,99859.84
2019-01-13T16:29:31.917Z,99845.83
2019-01-13T16:32:02.036Z,99842.30
2019-01-13T16:34:32.310Z,99846.19
2019-01-13T16:37:02.493Z,99864.44
2019-01-13T16:39:32.733Z,99854.02
2019-01-13T16:42:03.010Z,99846.63
2019-01-13T16:44:33.203Z,99842.30
2019-01-13T16:47:03.401Z,99840.99
2019-01-13T16:49:33.466Z,99859.28
2019-01-13T16:52:03.707Z,99861.06
2019-01-13T16:54:33.862Z,99858.03
2019-01-13T16:57:04.336Z,99857.20
2019-01-13T16:59:34.490Z,99862.81
2019-01-13T17:02:04.931Z,99858.51
2019-01-13T17:04:35.246Z,99862.45
2019-01-13T17:07:06.664Z,99862.03
2019-01-13T17:09:37.323Z,99863.78
2019-01-13T17:12:07.528Z,99853.34
2019-01-13T17:14:37.686Z,99847.64
2019-01-13T17:17:07.809Z,99852.87
2019-01-13T17:19:37.957Z,99858.12
2019-01-13T17:22:08.218Z,99864.25
2019-01-13T17:24:38.454Z,99853.28
2019-01-13T17:27:08.688Z,99874.64
2019-01-13T17:29:38.930Z,99870.31
2019-01-13T17:32:09.239Z,99877.67
2019-01-13T17:34:39.397Z,99880.70
2019-01-13T17:37:09.626Z,99886.77
2019-01-13T17:39:42.225Z,99874.56
2019-01-13T17:42:12.410Z,99881.53
2019-01-13T17:44:44.591Z,99895.45
2019-01-13T17:47:14.698Z,99889.79
2019-01-13T17:49:44.825Z,99880.64
2019-01-13T17:52:14.958Z,99898.52
2019-01-13T17:54:45.134Z,99882.88
2019-01-13T17:57:15.396Z,99904.23
2019-01-13T17:59:45.543Z,99889.92
2019-01-13T18:02:15.722Z,99896.46
2019-01-13T18:04:45.843Z,99906.52
2019-01-13T18:07:15.974Z,99924.77
2019-01-13T18:09:46.078Z,99919.50
2019-01-13T18:12:17.918Z,99922.09
2019-01-13T18:14:47.975Z,99925.12
2019-01-13T18:17:18.093Z,99894.65
2019-01-13T18:19:50.771Z,99934.73
2019-01-13T18:22:20.882Z,99939.57
2019-01-13T18:24:51.005Z,99923.09
2019-01-13T18:27:21.201Z,99950.52
2019-01-13T18:29:51.244Z,99923.98
2019-01-13T18:32:21.292Z,99922.72
2019-01-13T18:34:51.469Z,99936.19
2019-01-13T18:37:21.711Z,99934.47
2019-01-13T18:39:51.884Z,99939.67
2019-01-13T18:42:22.103Z,99932.73
2019-01-13T18:44:52.338Z,99939.24
2019-01-13T18:47:22.596Z,99941.85
2019-01-13T18:49:52.681Z,99942.73
2019-01-13T18:52:23.001Z,99936.64
2019-01-13T18:54:53.163Z,99943.18
2019-01-13T18:57:23.406Z,99919.69
2019-01-13T18:59:53.641Z,99933.59
2019-01-13T19:02:26.906Z,99966.19
2019-01-13T19:04:57.490Z,99937.95
2019-01-13T19:07:27.756Z,99941.44
2019-01-13T19:09:57.896Z,99940.13
2019-01-13T19:12:28.136Z,99948.37
2019-01-13T19:15:02.121Z,99948.37
2019-01-13T19:17:32.395Z,99965.74
2019-01-13T19:20:31.144Z,99969.66
2019-01-13T19:23:08.860Z,99964.45
2019-01-13T19:25:39.187Z,99971.84
2019-01-13T19:28:09.524Z,99973.13
2019-01-13T19:30:39.983Z,99978.79
2019-01-13T19:33:10.243Z,99992.69
2019-01-13T19:35:40.552Z,99997.48
2019-01-13T19:38:10.805Z,99977.91
2019-01-13T19:40:41.084Z,99987.92
2019-01-13T19:43:11.413Z,99996.62
2019-01-13T19:45:41.636Z,100000.52
2019-01-13T19:48:11.872Z,100003.98
2019-01-13T19:50:42.232Z,100007.47
2019-01-13T19:53:12.554Z,100000.91
2019-01-13T19:55:42.926Z,100010.96
2019-01-13T19:58:13.107Z,99999.20
2019-01-13T20:00:43.394Z,100005.70
2019-01-13T20:03:13.830Z,100037.03
2019-01-13T20:05:44.116Z,100011.81
2019-01-13T20:08:15.796Z,100008.31
2019-01-13T20:10:46.007Z,100028.30
2019-01-13T20:13:16.239Z,100019.16
2019-01-13T20:15:46.544Z,100023.95
2019-01-13T20:18:16.819Z,100027.00
2019-01-13T20:20:46.963Z,100031.36
2019-01-13T20:23:30.919Z,100025.70
2019-01-13T20:26:01.073Z,100029.20
2019-01-13T20:28:31.198Z,100030.94
2019-01-13T20:31:01.323Z,100040.50
2019-01-13T20:33:31.533Z,100034.83
2019-01-13T20:36:01.725Z,100043.11
2019-01-13T20:38:31.929Z,100040.50
2019-01-13T20:41:11.044Z,100045.73
2019-01-13T20:43:41.329Z,100039.62
2019-01-13T20:46:11.713Z,100044.42
2019-01-13T20:48:41.852Z,100039.20
2019-01-13T20:51:12.149Z,100043.56
2019-01-13T20:53:42.250Z,100055.28
2019-01-13T20:56:12.425Z,100057.47
2019-01-13T20:58:42.537Z,100051.81
2019-01-13T21:01:12.743Z,100067.48
2019-01-13T21:03:45.938Z,100070.09
2019-01-13T21:06:16.094Z,100079.66
2019-01-13T21:08:46.216Z,100067.93
2019-01-13T21:11:16.507Z,100083.14
2019-01-13T21:13:46.738Z,100090.97
2019-01-13T21:16:17.025Z,100088.80
2019-01-13T21:18:47.556Z,100090.12
2019-01-13T21:21:17.980Z,100084.02
2019-01-13T21:23:48.213Z,100090.09
2019-01-13T21:26:18.422Z,100113.61
2019-01-13T21:28:48.616Z,100098.80
2019-01-13T21:31:18.947Z,100103.59
2019-01-13T21:33:49.256Z,100104.89
2019-01-13T21:36:19.548Z,100115.34
